sensor_id;sensor_type;location;lat;lon;timestamp;pressure;altitude;pressure_sealevel;temperature;humidity
66945;BME280;53853;51.982;5.928;2023-03-21T00:02:16;101554.63;;;11.42;78.21
66945;BME280;53853;51.982;5.928;2023-03-21T00:04:45;101545.06;;;11.40;78.64
66945;BME280;53853;51.982;5.928;2023-03-21T00:07:15;101553.34;;;11.37;78.61
66945;BME280;53853;51.982;5.928;2023-03-21T00:09:45;101557.69;;;11.38;78.72
66945;BME280;53853;51.982;5.928;2023-03-21T00:12:15;101548.72;;;11.39;78.87
66945;BME280;53853;51.982;5.928;2023-03-21T00:14:47;101544.22;;;11.39;79.04
66945;BME280;53853;51.982;5.928;2023-03-21T00:17:24;101541.81;;;11.36;79.01
66945;BME280;53853;51.982;5.928;2023-03-21T00:19:58;101542.94;;;11.34;79.33
66945;BME280;53853;51.982;5.928;2023-03-21T00:22:32;101550.81;;;11.35;79.30
66945;BME280;53853;51.982;5.928;2023-03-21T00:25:03;101541.97;;;11.35;79.64
66945;BME280;53853;51.982;5.928;2023-03-21T00:27:34;101529.59;;;11.34;79.79
66945;BME280;53853;51.982;5.928;2023-03-21T00:30:05;101531.56;;;11.32;79.94
66945;BME280;53853;51.982;5.928;2023-03-21T00:32:37;101536.19;;;11.30;80.21
66945;BME280;53853;51.982;5.928;2023-03-21T00:35:08;101529.16;;;11.29;80.20
66945;BME280;53853;51.982;5.928;2023-03-21T00:37:38;101523.97;;;11.27;80.22
66945;BME280;53853;51.982;5.928;2023-03-21T00:40:11;101518.06;;;11.23;80.18
66945;BME280;53853;51.982;5.928;2023-03-21T00:42:41;101509.50;;;11.20;80.26
66945;BME280;53853;51.982;5.928;2023-03-21T00:45:11;101513.69;;;11.22;80.28
66945;BME280;53853;51.982;5.928;2023-03-21T00:47:46;101510.19;;;11.22;80.07
66945;BME280;53853;51.982;5.928;2023-03-21T00:50:16;101504.16;;;11.20;80.04
66945;BME280;53853;51.982;5.928;2023-03-21T00:52:46;101510.06;;;11.23;80.15
66945;BME280;53853;51.982;5.928;2023-03-21T00:55:17;101504.47;;;11.27;80.05
66945;BME280;53853;51.982;5.928;2023-03-21T00:57:47;101508.38;;;11.22;79.93
66945;BME280;53853;51.982;5.928;2023-03-21T01:00:19;101503.75;;;11.24;79.92
66945;BME280;53853;51.982;5.928;2023-03-21T01:02:52;101490.28;;;11.26;80.03
66945;BME280;53853;51.982;5.928;2023-03-21T01:05:33;101493.66;;;11.28;79.66
66945;BME280;53853;51.982;5.928;2023-03-21T01:08:20;101494.47;;;11.29;79.62
66945;BME280;53853;51.982;5.928;2023-03-21T01:10:51;101494.47;;;11.29;79.31
66945;BME280;53853;51.982;5.928;2023-03-21T01:13:23;101488.31;;;11.28;79.43
66945;BME280;53853;51.982;5.928;2023-03-21T01:15:55;101487.47;;;11.28;79.16
66945;BME280;53853;51.982;5.928;2023-03-21T01:18:29;101486.59;;;11.27;79.24
66945;BME280;53853;51.982;5.928;2023-03-21T01:21:00;101476.63;;;11.29;79.20
66945;BME280;53853;51.982;5.928;2023-03-21T01:23:30;101472.28;;;11.28;78.89
66945;BME280;53853;51.982;5.928;2023-03-21T01:26:00;101475.38;;;11.23;79.13
66945;BME280;53853;51.982;5.928;2023-03-21T01:28:31;101473.81;;;11.21;79.20
66945;BME280;53853;51.982;5.928;2023-03-21T01:31:01;101475.66;;;11.20;79.15
66945;BME280;53853;51.982;5.928;2023-03-21T01:33:34;101470.59;;;11.17;79.41
66945;BME280;53853;51.982;5.928;2023-03-21T01:36:05;101466.09;;;11.18;79.64
66945;BME280;53853;51.982;5.928;2023-03-21T01:38:35;101468.75;;;11.18;79.74
66945;BME280;53853;51.982;5.928;2023-03-21T01:41:05;101466.09;;;11.18;79.54
66945;BME280;53853;51.982;5.928;2023-03-21T01:43:36;101461.75;;;11.17;79.84
66945;BME280;53853;51.982;5.928;2023-03-21T01:49:11;101459.22;;;11.15;79.88
66945;BME280;53853;51.982;5.928;2023-03-21T01:51:47;101457.53;;;11.14;80.10
66945;BME280;53853;51.982;5.928;2023-03-21T01:54:22;101453.16;;;11.13;80.25
66945;BME280;53853;51.982;5.928;2023-03-21T01:56:55;101457.81;;;11.11;80.04
66945;BME280;53853;51.982;5.928;2023-03-21T01:59:30;101460.47;;;11.11;80.17
66945;BME280;53853;51.982;5.928;2023-03-21T02:02:25;101449.81;;;11.11;80.06
66945;BME280;53853;51.982;5.928;2023-03-21T02:05:31;101447.13;;;11.11;80.06
66945;BME280;53853;51.982;5.928;2023-03-21T02:08:04;101441.81;;;11.11;80.10
66945;BME280;53853;51.982;5.928;2023-03-21T02:10:35;101449.81;;;11.11;80.17
66945;BME280;53853;51.982;5.928;2023-03-21T02:13:08;101436.59;;;11.10;79.99
66945;BME280;53853;51.982;5.928;2023-03-21T02:15:41;101445.88;;;11.05;80.29
66945;BME280;53853;51.982;5.928;2023-03-21T02:18:28;101433.50;;;11.04;80.22
66945;BME280;53853;51.982;5.928;2023-03-21T02:21:26;101432.41;;;11.07;80.35
66945;BME280;53853;51.982;5.928;2023-03-21T02:24:23;101427.06;;;11.07;80.18
66945;BME280;53853;51.982;5.928;2023-03-21T02:27:10;101421.00;;;11.05;80.14
66945;BME280;53853;51.982;5.928;2023-03-21T02:30:08;101421.16;;;11.03;80.21
66945;BME280;53853;51.982;5.928;2023-03-21T02:32:58;101414.16;;;11.02;80.33
66945;BME280;53853;51.982;5.928;2023-03-21T02:35:45;101413.28;;;11.02;80.42
66945;BME280;53853;51.982;5.928;2023-03-21T02:38:25;101411.47;;;11.02;80.49
66945;BME280;53853;51.982;5.928;2023-03-21T02:41:02;101406.16;;;11.02;80.37
66945;BME280;53853;51.982;5.928;2023-03-21T02:43:40;101407.94;;;11.02;80.47
66945;BME280;53853;51.982;5.928;2023-03-21T02:46:15;101404.19;;;11.04;80.50
66945;BME280;53853;51.982;5.928;2023-03-21T02:48:51;101404.88;;;11.06;80.37
66945;BME280;53853;51.982;5.928;2023-03-21T02:51:25;101391.66;;;11.05;80.21
66945;BME280;53853;51.982;5.928;2023-03-21T02:54:02;101398.84;;;11.04;80.40
66945;BME280;53853;51.982;5.928;2023-03-21T02:56:36;101397.28;;;11.02;80.14
66945;BME280;53853;51.982;5.928;2023-03-21T02:59:07;101393.66;;;11.03;80.26
66945;BME280;53853;51.982;5.928;2023-03-21T03:01:37;101389.16;;;11.03;80.33
66945;BME280;53853;51.982;5.928;2023-03-21T03:04:18;101396.19;;;11.04;80.21
66945;BME280;53853;51.982;5.928;2023-03-21T03:07:10;101389.72;;;11.07;80.48
66945;BME280;53853;51.982;5.928;2023-03-21T03:10:00;101386.94;;;11.09;80.13
66945;BME280;53853;51.982;5.928;2023-03-21T03:12:40;101385.22;;;11.08;80.28
66945;BME280;53853;51.982;5.928;2023-03-21T03:15:19;101393.09;;;11.09;80.17
66945;BME280;53853;51.982;5.928;2023-03-21T03:18:00;101388.59;;;11.10;80.09
66945;BME280;53853;51.982;5.928;2023-03-21T03:20:43;101390.44;;;11.09;79.97
66945;BME280;53853;51.982;5.928;2023-03-21T03:23:20;101383.53;;;11.06;79.87
66945;BME280;53853;51.982;5.928;2023-03-21T03:25:59;101385.50;;;11.04;80.06
66945;BME280;53853;51.982;5.928;2023-03-21T03:28:35;101382.97;;;11.03;80.08
66945;BME280;53853;51.982;5.928;2023-03-21T03:31:15;101383.94;;;11.02;80.21
66945;BME280;53853;51.982;5.928;2023-03-21T03:33:55;101381.56;;;10.99;80.26
66945;BME280;53853;51.982;5.928;2023-03-21T03:36:30;101389.69;;;10.97;80.63
66945;BME280;53853;51.982;5.928;2023-03-21T03:39:10;101385.78;;;11.01;80.64
66945;BME280;53853;51.982;5.928;2023-03-21T03:41:50;101387.47;;;11.02;80.71
66945;BME280;53853;51.982;5.928;2023-03-21T03:44:23;101380.59;;;11.00;80.68
66945;BME280;53853;51.982;5.928;2023-03-21T03:47:03;101384.94;;;11.01;80.62
66945;BME280;53853;51.982;5.928;2023-03-21T03:49:38;101376.66;;;11.04;80.66
66945;BME280;53853;51.982;5.928;2023-03-21T03:52:16;101374.00;;;11.04;80.34
66945;BME280;53853;51.982;5.928;2023-03-21T03:54:53;101379.03;;;10.97;79.89
66945;BME280;53853;51.982;5.928;2023-03-21T03:57:27;101373.84;;;10.96;80.10
66945;BME280;53853;51.982;5.928;2023-03-21T03:59:58;101374.84;;;10.95;80.20
66945;BME280;53853;51.982;5.928;2023-03-21T04:02:44;101363.88;;;10.98;80.17
66945;BME280;53853;51.982;5.928;2023-03-21T04:05:18;101370.06;;;10.98;80.42
66945;BME280;53853;51.982;5.928;2023-03-21T04:07:49;101379.03;;;10.97;80.12
66945;BME280;53853;51.982;5.928;2023-03-21T04:10:27;101370.88;;;10.99;80.13
66945;BME280;53853;51.982;5.928;2023-03-21T04:13:00;101371.63;;;11.01;79.99
66945;BME280;53853;51.982;5.928;2023-03-21T04:15:34;101375.81;;;11.03;80.08
66945;BME280;53853;51.982;5.928;2023-03-21T04:18:11;101370.34;;;11.05;79.84
66945;BME280;53853;51.982;5.928;2023-03-21T04:20:42;101366.69;;;11.06;79.90
66945;BME280;53853;51.982;5.928;2023-03-21T04:23:14;101372.88;;;11.06;79.88
66945;BME280;53853;51.982;5.928;2023-03-21T04:25:46;101365.59;;;11.09;79.80
66945;BME280;53853;51.982;5.928;2023-03-21T04:28:19;101364.59;;;11.10;79.74
66945;BME280;53853;51.982;5.928;2023-03-21T04:30:55;101355.75;;;11.09;79.58
66945;BME280;53853;51.982;5.928;2023-03-21T04:33:25;101357.41;;;11.10;79.83
66945;BME280;53853;51.982;5.928;2023-03-21T04:35:56;101353.63;;;11.13;79.91
66945;BME280;53853;51.982;5.928;2023-03-21T04:38:31;101364.16;;;11.14;79.70
66945;BME280;53853;51.982;5.928;2023-03-21T04:41:04;101356.03;;;11.16;79.62
66945;BME280;53853;51.982;5.928;2023-03-21T04:43:36;101351.66;;;11.15;79.54
66945;BME280;53853;51.982;5.928;2023-03-21T04:46:06;101349.84;;;11.15;79.45
66945;BME280;53853;51.982;5.928;2023-03-21T04:48:36;101352.38;;;11.17;79.49
66945;BME280;53853;51.982;5.928;2023-03-21T04:51:07;101353.22;;;11.17;79.42
66945;BME280;53853;51.982;5.928;2023-03-21T04:53:37;101354.91;;;11.18;79.42
66945;BME280;53853;51.982;5.928;2023-03-21T04:56:10;101349.56;;;11.18;79.38
66945;BME280;53853;51.982;5.928;2023-03-21T04:58:42;101352.25;;;11.18;79.30
66945;BME280;53853;51.982;5.928;2023-03-21T05:01:14;101347.88;;;11.17;79.37
66945;BME280;53853;51.982;5.928;2023-03-21T05:03:46;101343.38;;;11.18;79.38
66945;BME280;53853;51.982;5.928;2023-03-21T05:06:16;101344.25;;;11.18;79.35
66945;BME280;53853;51.982;5.928;2023-03-21T05:08:46;101344.94;;;11.20;79.30
66945;BME280;53853;51.982;5.928;2023-03-21T05:11:16;101344.09;;;11.20;79.39
66945;BME280;53853;51.982;5.928;2023-03-21T05:13:49;101344.94;;;11.20;79.40
66945;BME280;53853;51.982;5.928;2023-03-21T05:16:19;101344.94;;;11.20;79.44
66945;BME280;53853;51.982;5.928;2023-03-21T05:18:53;101340.56;;;11.19;79.32
66945;BME280;53853;51.982;5.928;2023-03-21T05:21:25;101340.56;;;11.19;79.34
66945;BME280;53853;51.982;5.928;2023-03-21T05:24:00;101338.91;;;11.18;79.09
66945;BME280;53853;51.982;5.928;2023-03-21T05:26:31;101341.72;;;11.17;79.01
66945;BME280;53853;51.982;5.928;2023-03-21T05:29:15;101345.22;;;11.17;78.81
66945;BME280;53853;51.982;5.928;2023-03-21T05:31:52;101342.69;;;11.16;78.69
66945;BME280;53853;51.982;5.928;2023-03-21T05:34:22;101346.19;;;11.16;78.60
66945;BME280;53853;51.982;5.928;2023-03-21T05:36:54;101346.31;;;11.15;78.36
66945;BME280;53853;51.982;5.928;2023-03-21T05:39:27;101342.81;;;11.14;78.38
66945;BME280;53853;51.982;5.928;2023-03-21T05:42:09;101344.81;;;11.12;78.70
66945;BME280;53853;51.982;5.928;2023-03-21T05:44:43;101346.59;;;11.12;78.72
66945;BME280;53853;51.982;5.928;2023-03-21T05:47:15;101334.41;;;11.09;78.71
66945;BME280;53853;51.982;5.928;2023-03-21T05:49:47;101339.75;;;11.09;78.80
66945;BME280;53853;51.982;5.928;2023-03-21T05:52:17;101338.34;;;11.05;78.81
66945;BME280;53853;51.982;5.928;2023-03-21T05:54:48;101336.66;;;11.04;79.18
66945;BME280;53853;51.982;5.928;2023-03-21T05:57:21;101328.66;;;11.04;79.43
66945;BME280;53853;51.982;5.928;2023-03-21T06:00:21;101325.13;;;11.03;79.30
66945;BME280;53853;51.982;5.928;2023-03-21T06:03:07;101322.31;;;11.05;79.25
66945;BME280;53853;51.982;5.928;2023-03-21T06:05:54;101328.53;;;11.05;79.41
66945;BME280;53853;51.982;5.928;2023-03-21T06:08:27;101322.59;;;11.02;79.65
66945;BME280;53853;51.982;5.928;2023-03-21T06:10:58;101323.47;;;11.02;79.88
66945;BME280;53853;51.982;5.928;2023-03-21T06:13:28;101319.78;;;11.03;79.78
66945;BME280;53853;51.982;5.928;2023-03-21T06:16:02;101323.19;;;11.05;80.13
66945;BME280;53853;51.982;5.928;2023-03-21T06:18:35;101323.19;;;11.05;80.15
66945;BME280;53853;51.982;5.928;2023-03-21T06:21:21;101321.06;;;11.09;80.14
66945;BME280;53853;51.982;5.928;2023-03-21T06:23:51;101321.75;;;11.11;79.93
66945;BME280;53853;51.982;5.928;2023-03-21T06:26:21;101323.31;;;11.14;79.78
66945;BME280;53853;51.982;5.928;2023-03-21T06:28:53;101317.84;;;11.15;79.86
66945;BME280;53853;51.982;5.928;2023-03-21T06:31:25;101323.72;;;11.19;79.90
66945;BME280;53853;51.982;5.928;2023-03-21T06:34:01;101329.91;;;11.19;79.79
66945;BME280;53853;51.982;5.928;2023-03-21T06:36:32;101328.22;;;11.18;79.48
66945;BME280;53853;51.982;5.928;2023-03-21T06:39:03;101319.09;;;11.21;79.38
66945;BME280;53853;51.982;5.928;2023-03-21T06:41:37;101321.47;;;11.24;79.62
66945;BME280;53853;51.982;5.928;2023-03-21T06:44:07;101325.69;;;11.27;79.45
66945;BME280;53853;51.982;5.928;2023-03-21T06:46:48;101316.53;;;11.29;79.33
66945;BME280;53853;51.982;5.928;2023-03-21T06:49:20;101320.91;;;11.30;79.05
66945;BME280;53853;51.982;5.928;2023-03-21T06:51:49;101322.16;;;11.36;79.14
66945;BME280;53853;51.982;5.928;2023-03-21T06:54:21;101325.53;;;11.38;79.35
66945;BME280;53853;51.982;5.928;2023-03-21T06:56:58;101322.56;;;11.41;79.04
66945;BME280;53853;51.982;5.928;2023-03-21T06:59:33;101322.28;;;11.44;79.11
66945;BME280;53853;51.982;5.928;2023-03-21T07:02:09;101318.34;;;11.48;79.04
66945;BME280;53853;51.982;5.928;2023-03-21T07:04:45;101323.53;;;11.50;78.60
66945;BME280;53853;51.982;5.928;2023-03-21T07:07:23;101322.25;;;11.54;78.59
66945;BME280;53853;51.982;5.928;2023-03-21T07:09:52;101318.34;;;11.58;78.81
66945;BME280;53853;51.982;5.928;2023-03-21T07:12:23;101322.53;;;11.60;78.54
66945;BME280;53853;51.982;5.928;2023-03-21T07:15:12;101323.78;;;11.66;78.42
66945;BME280;53853;51.982;5.928;2023-03-21T07:17:47;101322.50;;;11.70;78.42
66945;BME280;53853;51.982;5.928;2023-03-21T07:20:17;101314.03;;;11.75;78.47
66945;BME280;53853;51.982;5.928;2023-03-21T07:22:47;101319.09;;;11.78;78.47
66945;BME280;53853;51.982;5.928;2023-03-21T07:25:17;101318.81;;;11.81;78.03
66945;BME280;53853;51.982;5.928;2023-03-21T07:27:48;101318.50;;;11.84;77.56
66945;BME280;53853;51.982;5.928;2023-03-21T07:30:19;101326.09;;;11.89;77.46
66945;BME280;53853;51.982;5.928;2023-03-21T07:32:52;101327.78;;;11.90;76.47
66945;BME280;53853;51.982;5.928;2023-03-21T07:35:22;101326.50;;;11.94;76.44
66945;BME280;53853;51.982;5.928;2023-03-21T07:37:53;101319.22;;;11.96;76.50
66945;BME280;53853;51.982;5.928;2023-03-21T07:40:23;101323.97;;;12.02;76.37
66945;BME280;53853;51.982;5.928;2023-03-21T07:42:53;101325.50;;;12.05;75.70
66945;BME280;53853;51.982;5.928;2023-03-21T07:45:33;101324.22;;;12.09;75.74
66945;BME280;53853;51.982;5.928;2023-03-21T07:48:09;101324.91;;;12.11;75.93
66945;BME280;53853;51.982;5.928;2023-03-21T07:50:39;101326.59;;;12.12;75.65
66945;BME280;53853;51.982;5.928;2023-03-21T07:53:09;101326.75;;;12.10;74.52
66945;BME280;53853;51.982;5.928;2023-03-21T07:55:39;101330.53;;;12.08;74.98
66945;BME280;53853;51.982;5.928;2023-03-21T07:58:09;101331.22;;;12.10;75.25
66945;BME280;53853;51.982;5.928;2023-03-21T08:00:39;101328.69;;;12.08;74.33
66945;BME280;53853;51.982;5.928;2023-03-21T08:03:11;101332.22;;;12.09;74.63
66945;BME280;53853;51.982;5.928;2023-03-21T08:05:41;101337.56;;;12.09;74.66
66945;BME280;53853;51.982;5.928;2023-03-21T08:08:12;101338.84;;;12.05;74.98
66945;BME280;53853;51.982;5.928;2023-03-21T08:10:42;101335.50;;;12.03;75.23
66945;BME280;53853;51.982;5.928;2023-03-21T08:13:12;101324.28;;;11.99;75.57
66945;BME280;53853;51.982;5.928;2023-03-21T08:15:42;101328.59;;;12.00;75.56
66945;BME280;53853;51.982;5.928;2023-03-21T08:18:15;101332.13;;;12.01;75.68
66945;BME280;53853;51.982;5.928;2023-03-21T08:20:45;101325.78;;;12.02;76.04
66945;BME280;53853;51.982;5.928;2023-03-21T08:23:15;101328.84;;;12.07;75.96
66945;BME280;53853;51.982;5.928;2023-03-21T08:25:44;101330.97;;;12.03;75.86
66945;BME280;53853;51.982;5.928;2023-03-21T08:28:15;101323.78;;;12.04;75.82
66945;BME280;53853;51.982;5.928;2023-03-21T08:30:45;101316.50;;;12.06;75.74
66945;BME280;53853;51.982;5.928;2023-03-21T08:33:17;101311.16;;;12.06;75.83
66945;BME280;53853;51.982;5.928;2023-03-21T08:35:47;101313.09;;;12.04;75.72
66945;BME280;53853;51.982;5.928;2023-03-21T08:38:17;101305.97;;;12.04;76.05
66945;BME280;53853;51.982;5.928;2023-03-21T08:40:48;101307.19;;;12.10;76.40
66945;BME280;53853;51.982;5.928;2023-03-21T08:43:18;101299.44;;;12.17;76.50
66945;BME280;53853;51.982;5.928;2023-03-21T08:45:48;101298.13;;;12.21;75.96
66945;BME280;53853;51.982;5.928;2023-03-21T08:48:21;101304.00;;;12.24;76.23
66945;BME280;53853;51.982;5.928;2023-03-21T08:50:51;101302.88;;;12.27;76.41
66945;BME280;53853;51.982;5.928;2023-03-21T08:53:21;101306.81;;;12.32;75.84
66945;BME280;53853;51.982;5.928;2023-03-21T08:55:54;101303.97;;;12.34;76.13
66945;BME280;53853;51.982;5.928;2023-03-21T08:58:24;101304.38;;;12.39;76.14
66945;BME280;53853;51.982;5.928;2023-03-21T09:00:54;101302.22;;;12.43;75.79
66945;BME280;53853;51.982;5.928;2023-03-21T09:03:26;101296.56;;;12.46;75.73
66945;BME280;53853;51.982;5.928;2023-03-21T09:05:56;101308.66;;;12.50;75.64
66945;BME280;53853;51.982;5.928;2023-03-21T09:08:28;101301.03;;;12.55;76.03
66945;BME280;53853;51.982;5.928;2023-03-21T09:10:58;101295.91;;;12.62;75.96
66945;BME280;53853;51.982;5.928;2023-03-21T09:13:28;101295.28;;;12.68;75.52
66945;BME280;53853;51.982;5.928;2023-03-21T09:15:58;101290.31;;;12.73;75.83
66945;BME280;53853;51.982;5.928;2023-03-21T09:18:31;101290.72;;;12.78;75.68
66945;BME280;53853;51.982;5.928;2023-03-21T09:21:15;101288.41;;;12.83;75.36
66945;BME280;53853;51.982;5.928;2023-03-21T09:23:47;101281.22;;;12.84;75.59
66945;BME280;53853;51.982;5.928;2023-03-21T09:26:18;101276.97;;;12.91;76.06
66945;BME280;53853;51.982;5.928;2023-03-21T09:28:49;101278.31;;;12.95;76.11
66945;BME280;53853;51.982;5.928;2023-03-21T09:31:19;101277.69;;;13.01;76.58
66945;BME280;53853;51.982;5.928;2023-03-21T09:33:53;101276.91;;;13.09;76.07
66945;BME280;53853;51.982;5.928;2023-03-21T09:36:24;101270.44;;;13.12;76.23
66945;BME280;53853;51.982;5.928;2023-03-21T09:38:57;101271.94;;;13.14;75.76
66945;BME280;53853;51.982;5.928;2023-03-21T09:41:47;101269.47;;;13.21;76.36
66945;BME280;53853;51.982;5.928;2023-03-21T09:44:30;101269.88;;;13.26;76.25
66945;BME280;53853;51.982;5.928;2023-03-21T09:47:12;101259.50;;;13.31;75.90
66945;BME280;53853;51.982;5.928;2023-03-21T09:49:51;101256.00;;;13.31;75.28
66945;BME280;53853;51.982;5.928;2023-03-21T09:52:28;101259.22;;;13.34;74.64
66945;BME280;53853;51.982;5.928;2023-03-21T09:55:02;101256.00;;;13.31;74.26
66945;BME280;53853;51.982;5.928;2023-03-21T09:57:48;101255.53;;;13.35;74.30
66945;BME280;53853;51.982;5.928;2023-03-21T10:00:25;101248.88;;;13.39;74.74
66945;BME280;53853;51.982;5.928;2023-03-21T10:02:59;101242.53;;;13.40;73.91
66945;BME280;53853;51.982;5.928;2023-03-21T10:05:36;101252.94;;;13.44;74.34
66945;BME280;53853;51.982;5.928;2023-03-21T10:08:16;101245.25;;;13.49;74.45
66945;BME280;53853;51.982;5.928;2023-03-21T10:10:50;101242.75;;;13.47;73.96
66945;BME280;53853;51.982;5.928;2023-03-21T10:13:25;101242.94;;;13.54;73.50
66945;BME280;53853;51.982;5.928;2023-03-21T10:15:57;101235.56;;;13.56;73.43
66945;BME280;53853;51.982;5.928;2023-03-21T10:18:29;101226.59;;;13.65;74.32
66945;BME280;53853;51.982;5.928;2023-03-21T10:21:04;101216.59;;;13.75;74.31
66945;BME280;53853;51.982;5.928;2023-03-21T10:23:34;101206.75;;;13.84;74.37
66945;BME280;53853;51.982;5.928;2023-03-21T10:26:05;101212.97;;;13.93;72.88
66945;BME280;53853;51.982;5.928;2023-03-21T10:28:38;101212.16;;;14.01;73.09
66945;BME280;53853;51.982;5.928;2023-03-21T10:31:15;101212.19;;;14.09;71.62
66945;BME280;53853;51.982;5.928;2023-03-21T10:33:48;101200.28;;;14.11;72.23
66945;BME280;53853;51.982;5.928;2023-03-21T10:36:22;101200.31;;;14.20;72.83
66945;BME280;53853;51.982;5.928;2023-03-21T10:38:56;101207.38;;;14.29;70.99
66945;BME280;53853;51.982;5.928;2023-03-21T10:41:30;101202.50;;;14.32;68.70
66945;BME280;53853;51.982;5.928;2023-03-21T10:44:08;101205.38;;;14.39;70.21
66945;BME280;53853;51.982;5.928;2023-03-21T10:46:51;101201.19;;;14.45;69.53
66945;BME280;53853;51.982;5.928;2023-03-21T10:49:21;101199.66;;;14.50;70.43
66945;BME280;53853;51.982;5.928;2023-03-21T10:51:57;101195.50;;;14.56;70.35
66945;BME280;53853;51.982;5.928;2023-03-21T10:54:29;101188.94;;;14.59;70.46
66945;BME280;53853;51.982;5.928;2023-03-21T10:57:03;101190.16;;;14.64;70.13
66945;BME280;53853;51.982;5.928;2023-03-21T10:59:35;101188.31;;;14.65;68.08
66945;BME280;53853;51.982;5.928;2023-03-21T11:02:06;101187.81;;;14.61;67.72
66945;BME280;53853;51.982;5.928;2023-03-21T11:04:44;101185.28;;;14.68;68.78
66945;BME280;53853;51.982;5.928;2023-03-21T11:07:17;101187.78;;;14.78;68.38
66945;BME280;53853;51.982;5.928;2023-03-21T11:09:53;101187.44;;;14.89;68.85
66945;BME280;53853;51.982;5.928;2023-03-21T11:12:27;101180.56;;;14.95;68.24
66945;BME280;53853;51.982;5.928;2023-03-21T11:14:57;101173.53;;;15.02;68.62
66945;BME280;53853;51.982;5.928;2023-03-21T11:17:43;101181.91;;;15.07;67.68
66945;BME280;53853;51.982;5.928;2023-03-21T11:20:17;101190.44;;;15.02;66.32
66945;BME280;53853;51.982;5.928;2023-03-21T11:22:54;101186.94;;;15.02;65.66
66945;BME280;53853;51.982;5.928;2023-03-21T11:25:31;101181.56;;;15.02;65.53
66945;BME280;53853;51.982;5.928;2023-03-21T11:28:06;101180.91;;;14.92;63.81
66945;BME280;53853;51.982;5.928;2023-03-21T11:30:37;101177.56;;;14.90;64.37
66945;BME280;53853;51.982;5.928;2023-03-21T11:33:18;101180.41;;;14.88;64.88
66945;BME280;53853;51.982;5.928;2023-03-21T11:36:00;101177.41;;;14.91;64.71
66945;BME280;53853;51.982;5.928;2023-03-21T11:38:38;101175.88;;;14.89;64.18
66945;BME280;53853;51.982;5.928;2023-03-21T11:41:08;101176.88;;;14.88;63.82
66945;BME280;53853;51.982;5.928;2023-03-21T11:43:38;101181.72;;;14.92;64.91
66945;BME280;53853;51.982;5.928;2023-03-21T11:46:12;101176.53;;;14.99;64.40
66945;BME280;53853;51.982;5.928;2023-03-21T11:48:44;101176.88;;;15.04;64.50
66945;BME280;53853;51.982;5.928;2023-03-21T11:51:21;101173.84;;;15.07;63.24
66945;BME280;53853;51.982;5.928;2023-03-21T11:54:05;101171.97;;;15.08;63.43
66945;BME280;53853;51.982;5.928;2023-03-21T11:56:41;101162.59;;;15.12;64.15
66945;BME280;53853;51.982;5.928;2023-03-21T11:59:29;101150.66;;;15.14;63.02
66945;BME280;53853;51.982;5.928;2023-03-21T12:02:19;101149.47;;;15.17;62.93
66945;BME280;53853;51.982;5.928;2023-03-21T12:04:56;101162.38;;;15.21;64.03
66945;BME280;53853;51.982;5.928;2023-03-21T12:07:44;101155.34;;;15.20;62.92
66945;BME280;53853;51.982;5.928;2023-03-21T12:10:30;101138.56;;;15.18;62.54
66945;BME280;53853;51.982;5.928;2023-03-21T12:13:12;101138.91;;;15.15;62.54
66945;BME280;53853;51.982;5.928;2023-03-21T12:15:51;101148.13;;;15.21;63.52
66945;BME280;53853;51.982;5.928;2023-03-21T12:18:47;101128.44;;;15.29;63.42
66945;BME280;53853;51.982;5.928;2023-03-21T12:21:28;101137.84;;;15.33;62.91
66945;BME280;53853;51.982;5.928;2023-03-21T12:24:06;101133.47;;;15.32;62.18
66945;BME280;53853;51.982;5.928;2023-03-21T12:26:50;101127.59;;;15.36;63.26
66945;BME280;53853;51.982;5.928;2023-03-21T12:29:32;101124.38;;;15.41;63.14
66945;BME280;53853;51.982;5.928;2023-03-21T12:32:14;101131.59;;;15.40;61.68
66945;BME280;53853;51.982;5.928;2023-03-21T12:35:01;101124.56;;;15.39;61.86
66945;BME280;53853;51.982;5.928;2023-03-21T12:37:40;101113.34;;;15.36;62.06
66945;BME280;53853;51.982;5.928;2023-03-21T12:40:20;101112.69;;;15.34;61.19
66945;BME280;53853;51.982;5.928;2023-03-21T12:46:03;101113.88;;;15.23;61.56
66945;BME280;53853;51.982;5.928;2023-03-21T12:48:40;101118.09;;;15.17;61.68
66945;BME280;53853;51.982;5.928;2023-03-21T12:51:15;101114.28;;;15.12;61.96
66945;BME280;53853;51.982;5.928;2023-03-21T12:53:56;101109.25;;;15.09;61.45
66945;BME280;53853;51.982;5.928;2023-03-21T12:56:31;101117.47;;;15.07;62.19
66945;BME280;53853;51.982;5.928;2023-03-21T12:59:12;101110.41;;;15.06;61.97
66945;BME280;53853;51.982;5.928;2023-03-21T13:01:43;101102.03;;;15.09;62.54
66945;BME280;53853;51.982;5.928;2023-03-21T13:04:31;101090.59;;;15.15;61.59
66945;BME280;53853;51.982;5.928;2023-03-21T13:07:06;101088.91;;;15.23;61.96
66945;BME280;53853;51.982;5.928;2023-03-21T13:09:38;101091.53;;;15.31;62.41
66945;BME280;53853;51.982;5.928;2023-03-21T13:12:20;101090.50;;;15.40;61.70
66945;BME280;53853;51.982;5.928;2023-03-21T13:15:05;101090.09;;;15.51;61.71
66945;BME280;53853;51.982;5.928;2023-03-21T13:17:40;101082.47;;;15.63;61.68
66945;BME280;53853;51.982;5.928;2023-03-21T13:20:20;101091.66;;;15.77;62.61
66945;BME280;53853;51.982;5.928;2023-03-21T13:22:51;101086.88;;;15.87;60.72
66945;BME280;53853;51.982;5.928;2023-03-21T13:25:22;101091.72;;;15.92;60.72
66945;BME280;53853;51.982;5.928;2023-03-21T13:27:54;101077.09;;;15.94;60.63
66945;BME280;53853;51.982;5.928;2023-03-21T13:30:32;101076.72;;;15.98;60.21
66945;BME280;53853;51.982;5.928;2023-03-21T13:33:09;101075.34;;;16.02;61.05
66945;BME280;53853;51.982;5.928;2023-03-21T13:35:41;101065.09;;;16.05;58.79
66945;BME280;53853;51.982;5.928;2023-03-21T13:38:14;101065.25;;;16.04;57.36